Ana Sayfa
METAR-TAF:

METAR-TAF

Havaalanları :

Siler City, Kuzey Carolina, Amerika Birleşik Devletleri

Enlem: 35-42-15N, Boylam: 079-30-15W, yükseklik: 187 m

Güncel hava durumu gözlemi

Rapor saat 16:15 UTC de 18 dakika önce yapıldı.
Rüzgar güneybatıdan 5 kt
Sıcaklık 18°C
Nem 56%
Basınç 1020 hPa
Görüş mesafesi: 16.1 km
Açık gökyüzü

METAR: KSCR 051615Z AUTO 22005KT 10SM CLR 18/09 A3013 RMK AO2 T01770088

Saat: 12:33 (16:33 UTC)


TAF: eksik

4.000'den fazla havaalanı için hava durumu gözlemleri ve tahminleri (METAR ve TAF raporları).

Kullanılabilir istasyonlar harita üzerinde sarı ve kırmızı noktalarla gösterilir.

İstasyonun adını görmek için fareyi noktanın üzerinde gezdirin.

Sonrasında hava gözlem ve tahminlerini görmek için tıklayın.

Haritayı değiştirmek için: yaklaştırmak için siyah artı işaretli yeşil düğmeye ve uzaklaştırmak için de eksi işaretli düğmeye hızla tıklayın; bitişik haritalar için yeşil okları kullanın.


METAR-TAF: